sensor_id;sensor_type;location;lat;lon;timestamp;P1;durP1;ratioP1;P2;durP2;ratioP2
74777;SDS011;63298;53.164;8.610;2024-03-06T00:01:48;8.60;;;4.95;;
74777;SDS011;63298;53.164;8.610;2024-03-06T00:04:14;10.85;;;5.38;;
74777;SDS011;63298;53.164;8.610;2024-03-06T00:06:39;9.85;;;5.28;;
74777;SDS011;63298;53.164;8.610;2024-03-06T00:09:04;8.55;;;4.97;;
74777;SDS011;63298;53.164;8.610;2024-03-06T00:11:30;11.27;;;5.93;;
74777;SDS011;63298;53.164;8.610;2024-03-06T00:13:56;10.02;;;5.10;;
74777;SDS011;63298;53.164;8.610;2024-03-06T00:16:21;8.23;;;4.82;;
74777;SDS011;63298;53.164;8.610;2024-03-06T00:18:46;10.35;;;5.10;;
74777;SDS011;63298;53.164;8.610;2024-03-06T00:21:12;12.45;;;5.15;;
74777;SDS011;63298;53.164;8.610;2024-03-06T00:23:37;10.95;;;5.68;;
74777;SDS011;63298;53.164;8.610;2024-03-06T00:26:03;10.82;;;5.20;;
74777;SDS011;63298;53.164;8.610;2024-03-06T00:28:29;9.93;;;5.70;;
74777;SDS011;63298;53.164;8.610;2024-03-06T00:30:54;9.60;;;5.28;;
74777;SDS011;63298;53.164;8.610;2024-03-06T00:33:20;9.68;;;5.43;;
74777;SDS011;63298;53.164;8.610;2024-03-06T00:35:45;9.82;;;5.70;;
74777;SDS011;63298;53.164;8.610;2024-03-06T00:38:11;9.75;;;5.57;;
74777;SDS011;63298;53.164;8.610;2024-03-06T00:40:36;9.48;;;5.38;;
74777;SDS011;63298;53.164;8.610;2024-03-06T00:43:02;9.27;;;5.20;;
74777;SDS011;63298;53.164;8.610;2024-03-06T00:45:27;11.13;;;5.72;;
74777;SDS011;63298;53.164;8.610;2024-03-06T00:47:56;10.30;;;5.53;;
74777;SDS011;63298;53.164;8.610;2024-03-06T00:50:32;9.95;;;5.55;;
74777;SDS011;63298;53.164;8.610;2024-03-06T00:52:58;8.95;;;4.78;;
74777;SDS011;63298;53.164;8.610;2024-03-06T00:55:23;11.82;;;5.93;;
74777;SDS011;63298;53.164;8.610;2024-03-06T00:57:51;10.88;;;5.65;;
74777;SDS011;63298;53.164;8.610;2024-03-06T01:00:22;10.00;;;5.63;;
74777;SDS011;63298;53.164;8.610;2024-03-06T01:02:48;11.82;;;5.97;;
74777;SDS011;63298;53.164;8.610;2024-03-06T01:05:15;9.65;;;5.65;;
74777;SDS011;63298;53.164;8.610;2024-03-06T01:07:41;12.07;;;5.55;;
74777;SDS011;63298;53.164;8.610;2024-03-06T01:10:06;9.20;;;5.57;;
74777;SDS011;63298;53.164;8.610;2024-03-06T01:12:32;12.23;;;6.30;;
74777;SDS011;63298;53.164;8.610;2024-03-06T01:14:58;9.57;;;5.30;;
74777;SDS011;63298;53.164;8.610;2024-03-06T01:17:24;8.27;;;5.10;;
74777;SDS011;63298;53.164;8.610;2024-03-06T01:19:50;8.02;;;5.47;;
74777;SDS011;63298;53.164;8.610;2024-03-06T01:22:16;10.02;;;5.35;;
74777;SDS011;63298;53.164;8.610;2024-03-06T01:24:41;10.48;;;5.57;;
74777;SDS011;63298;53.164;8.610;2024-03-06T01:27:07;8.98;;;5.32;;
74777;SDS011;63298;53.164;8.610;2024-03-06T01:29:33;10.45;;;5.30;;
74777;SDS011;63298;53.164;8.610;2024-03-06T01:31:59;8.45;;;4.97;;
74777;SDS011;63298;53.164;8.610;2024-03-06T01:34:24;9.80;;;5.43;;
74777;SDS011;63298;53.164;8.610;2024-03-06T01:36:50;12.98;;;5.88;;
74777;SDS011;63298;53.164;8.610;2024-03-06T01:39:16;10.35;;;5.88;;
74777;SDS011;63298;53.164;8.610;2024-03-06T01:41:45;13.55;;;6.15;;
74777;SDS011;63298;53.164;8.610;2024-03-06T01:44:12;11.57;;;5.55;;
74777;SDS011;63298;53.164;8.610;2024-03-06T01:46:38;12.70;;;5.50;;
74777;SDS011;63298;53.164;8.610;2024-03-06T01:49:04;10.10;;;6.15;;
74777;SDS011;63298;53.164;8.610;2024-03-06T01:51:29;14.20;;;6.30;;
74777;SDS011;63298;53.164;8.610;2024-03-06T01:53:56;9.48;;;5.50;;
74777;SDS011;63298;53.164;8.610;2024-03-06T01:56:22;10.52;;;5.63;;
74777;SDS011;63298;53.164;8.610;2024-03-06T01:58:47;16.25;;;6.10;;
74777;SDS011;63298;53.164;8.610;2024-03-06T02:01:14;9.48;;;5.82;;
74777;SDS011;63298;53.164;8.610;2024-03-06T02:03:41;10.15;;;5.63;;
74777;SDS011;63298;53.164;8.610;2024-03-06T02:06:07;11.20;;;5.95;;
74777;SDS011;63298;53.164;8.610;2024-03-06T02:08:35;11.20;;;5.78;;
74777;SDS011;63298;53.164;8.610;2024-03-06T02:11:00;10.85;;;5.25;;
74777;SDS011;63298;53.164;8.610;2024-03-06T02:13:26;10.48;;;5.22;;
74777;SDS011;63298;53.164;8.610;2024-03-06T02:15:51;8.55;;;5.43;;
74777;SDS011;63298;53.164;8.610;2024-03-06T02:18:17;9.93;;;5.72;;
74777;SDS011;63298;53.164;8.610;2024-03-06T02:20:42;8.15;;;4.75;;
74777;SDS011;63298;53.164;8.610;2024-03-06T02:23:07;13.02;;;6.15;;
74777;SDS011;63298;53.164;8.610;2024-03-06T02:25:33;10.95;;;5.45;;
74777;SDS011;63298;53.164;8.610;2024-03-06T02:27:58;11.02;;;6.03;;
74777;SDS011;63298;53.164;8.610;2024-03-06T02:30:24;10.18;;;5.53;;
74777;SDS011;63298;53.164;8.610;2024-03-06T02:32:50;10.80;;;5.45;;
74777;SDS011;63298;53.164;8.610;2024-03-06T02:35:18;8.98;;;5.25;;
74777;SDS011;63298;53.164;8.610;2024-03-06T02:37:43;10.70;;;5.32;;
74777;SDS011;63298;53.164;8.610;2024-03-06T02:40:12;10.52;;;5.13;;
74777;SDS011;63298;53.164;8.610;2024-03-06T02:42:37;10.68;;;5.22;;
74777;SDS011;63298;53.164;8.610;2024-03-06T02:45:03;12.85;;;5.60;;
74777;SDS011;63298;53.164;8.610;2024-03-06T02:47:29;9.43;;;5.75;;
74777;SDS011;63298;53.164;8.610;2024-03-06T02:49:54;11.38;;;5.85;;
74777;SDS011;63298;53.164;8.610;2024-03-06T02:52:20;11.75;;;5.65;;
74777;SDS011;63298;53.164;8.610;2024-03-06T02:54:45;10.75;;;5.38;;
74777;SDS011;63298;53.164;8.610;2024-03-06T02:57:11;11.02;;;5.85;;
74777;SDS011;63298;53.164;8.610;2024-03-06T02:59:39;11.98;;;5.40;;
74777;SDS011;63298;53.164;8.610;2024-03-06T03:02:05;10.38;;;5.65;;
74777;SDS011;63298;53.164;8.610;2024-03-06T03:04:33;11.93;;;5.75;;
74777;SDS011;63298;53.164;8.610;2024-03-06T03:07:00;10.85;;;5.80;;
74777;SDS011;63298;53.164;8.610;2024-03-06T03:09:26;11.80;;;5.85;;
74777;SDS011;63298;53.164;8.610;2024-03-06T03:11:51;14.23;;;6.03;;
74777;SDS011;63298;53.164;8.610;2024-03-06T03:14:17;9.00;;;5.60;;
74777;SDS011;63298;53.164;8.610;2024-03-06T03:16:43;13.43;;;5.93;;
74777;SDS011;63298;53.164;8.610;2024-03-06T03:19:09;13.00;;;5.65;;
74777;SDS011;63298;53.164;8.610;2024-03-06T03:21:34;12.30;;;5.85;;
74777;SDS011;63298;53.164;8.610;2024-03-06T03:24:00;10.40;;;6.10;;
74777;SDS011;63298;53.164;8.610;2024-03-06T03:26:25;11.88;;;5.80;;
74777;SDS011;63298;53.164;8.610;2024-03-06T03:28:51;10.70;;;5.60;;
74777;SDS011;63298;53.164;8.610;2024-03-06T03:31:17;11.13;;;5.10;;
74777;SDS011;63298;53.164;8.610;2024-03-06T03:33:42;14.30;;;5.97;;
74777;SDS011;63298;53.164;8.610;2024-03-06T03:36:08;10.38;;;5.72;;
74777;SDS011;63298;53.164;8.610;2024-03-06T03:38:37;12.68;;;5.38;;
74777;SDS011;63298;53.164;8.610;2024-03-06T03:41:08;10.95;;;5.50;;
74777;SDS011;63298;53.164;8.610;2024-03-06T03:43:34;10.00;;;5.25;;
74777;SDS011;63298;53.164;8.610;2024-03-06T03:46:00;13.48;;;6.22;;
74777;SDS011;63298;53.164;8.610;2024-03-06T03:48:27;9.05;;;4.75;;
74777;SDS011;63298;53.164;8.610;2024-03-06T03:50:53;9.88;;;5.65;;
74777;SDS011;63298;53.164;8.610;2024-03-06T03:53:19;10.05;;;5.55;;
74777;SDS011;63298;53.164;8.610;2024-03-06T03:55:47;11.30;;;5.45;;
74777;SDS011;63298;53.164;8.610;2024-03-06T03:58:12;13.25;;;5.45;;
74777;SDS011;63298;53.164;8.610;2024-03-06T04:00:38;11.95;;;5.72;;
74777;SDS011;63298;53.164;8.610;2024-03-06T04:03:04;10.35;;;5.43;;
74777;SDS011;63298;53.164;8.610;2024-03-06T04:05:29;12.10;;;5.65;;
74777;SDS011;63298;53.164;8.610;2024-03-06T04:07:55;9.88;;;5.25;;
74777;SDS011;63298;53.164;8.610;2024-03-06T04:10:20;11.88;;;5.63;;
74777;SDS011;63298;53.164;8.610;2024-03-06T04:12:46;10.00;;;5.40;;
74777;SDS011;63298;53.164;8.610;2024-03-06T04:15:12;14.38;;;5.90;;
74777;SDS011;63298;53.164;8.610;2024-03-06T04:17:37;11.13;;;5.65;;
74777;SDS011;63298;53.164;8.610;2024-03-06T04:20:09;10.73;;;5.40;;
74777;SDS011;63298;53.164;8.610;2024-03-06T04:22:43;11.20;;;5.60;;
74777;SDS011;63298;53.164;8.610;2024-03-06T04:25:09;9.93;;;5.07;;
74777;SDS011;63298;53.164;8.610;2024-03-06T04:27:38;10.52;;;5.82;;
74777;SDS011;63298;53.164;8.610;2024-03-06T04:30:06;10.60;;;5.57;;
74777;SDS011;63298;53.164;8.610;2024-03-06T04:32:37;12.82;;;5.65;;
74777;SDS011;63298;53.164;8.610;2024-03-06T04:35:06;11.38;;;5.97;;
74777;SDS011;63298;53.164;8.610;2024-03-06T04:37:38;15.32;;;6.03;;
74777;SDS011;63298;53.164;8.610;2024-03-06T04:40:07;14.13;;;5.90;;
74777;SDS011;63298;53.164;8.610;2024-03-06T04:42:36;13.80;;;5.75;;
74777;SDS011;63298;53.164;8.610;2024-03-06T04:45:10;11.68;;;5.68;;
74777;SDS011;63298;53.164;8.610;2024-03-06T04:47:36;12.30;;;5.85;;
74777;SDS011;63298;53.164;8.610;2024-03-06T04:53:28;16.08;;;5.47;;
74777;SDS011;63298;53.164;8.610;2024-03-06T04:55:59;12.35;;;6.13;;
74777;SDS011;63298;53.164;8.610;2024-03-06T04:58:24;10.80;;;6.13;;
74777;SDS011;63298;53.164;8.610;2024-03-06T05:00:50;10.90;;;6.05;;
74777;SDS011;63298;53.164;8.610;2024-03-06T05:03:18;10.50;;;5.80;;
74777;SDS011;63298;53.164;8.610;2024-03-06T05:05:49;12.82;;;6.00;;
74777;SDS011;63298;53.164;8.610;2024-03-06T05:08:24;13.60;;;5.80;;
74777;SDS011;63298;53.164;8.610;2024-03-06T05:10:55;10.38;;;5.85;;
74777;SDS011;63298;53.164;8.610;2024-03-06T05:13:29;13.25;;;6.00;;
74777;SDS011;63298;53.164;8.610;2024-03-06T05:16:00;11.27;;;5.63;;
74777;SDS011;63298;53.164;8.610;2024-03-06T05:18:25;7.90;;;5.03;;
74777;SDS011;63298;53.164;8.610;2024-03-06T05:20:51;13.40;;;6.93;;
74777;SDS011;63298;53.164;8.610;2024-03-06T05:23:35;12.10;;;6.07;;
74777;SDS011;63298;53.164;8.610;2024-03-06T05:29:22;11.38;;;5.80;;
74777;SDS011;63298;53.164;8.610;2024-03-06T05:31:55;12.48;;;5.10;;
74777;SDS011;63298;53.164;8.610;2024-03-06T05:34:38;13.30;;;6.30;;
74777;SDS011;63298;53.164;8.610;2024-03-06T05:37:06;11.88;;;5.72;;
74777;SDS011;63298;53.164;8.610;2024-03-06T05:39:35;10.35;;;5.95;;
74777;SDS011;63298;53.164;8.610;2024-03-06T05:42:01;9.77;;;5.57;;
74777;SDS011;63298;53.164;8.610;2024-03-06T05:44:32;12.20;;;6.07;;
74777;SDS011;63298;53.164;8.610;2024-03-06T05:47:03;11.23;;;6.45;;
74777;SDS011;63298;53.164;8.610;2024-03-06T05:49:29;12.45;;;6.50;;
74777;SDS011;63298;53.164;8.610;2024-03-06T05:51:59;13.45;;;6.43;;
74777;SDS011;63298;53.164;8.610;2024-03-06T05:54:25;9.55;;;5.72;;
74777;SDS011;63298;53.164;8.610;2024-03-06T05:56:51;8.55;;;5.68;;
74777;SDS011;63298;53.164;8.610;2024-03-06T05:59:17;15.23;;;6.53;;
74777;SDS011;63298;53.164;8.610;2024-03-06T06:01:46;12.32;;;6.03;;
74777;SDS011;63298;53.164;8.610;2024-03-06T06:04:12;11.75;;;6.28;;
74777;SDS011;63298;53.164;8.610;2024-03-06T06:06:37;12.23;;;5.82;;
74777;SDS011;63298;53.164;8.610;2024-03-06T06:09:03;11.23;;;6.38;;
74777;SDS011;63298;53.164;8.610;2024-03-06T06:11:29;13.07;;;6.72;;
74777;SDS011;63298;53.164;8.610;2024-03-06T06:13:55;15.18;;;6.50;;
74777;SDS011;63298;53.164;8.610;2024-03-06T06:16:20;12.60;;;6.82;;
74777;SDS011;63298;53.164;8.610;2024-03-06T06:18:45;13.10;;;6.00;;
74777;SDS011;63298;53.164;8.610;2024-03-06T06:21:11;13.18;;;5.55;;
74777;SDS011;63298;53.164;8.610;2024-03-06T06:23:38;13.00;;;6.55;;
74777;SDS011;63298;53.164;8.610;2024-03-06T06:26:11;13.15;;;5.85;;
74777;SDS011;63298;53.164;8.610;2024-03-06T06:28:37;12.55;;;6.43;;
74777;SDS011;63298;53.164;8.610;2024-03-06T06:31:03;10.23;;;5.88;;
74777;SDS011;63298;53.164;8.610;2024-03-06T06:33:31;13.57;;;6.20;;
74777;SDS011;63298;53.164;8.610;2024-03-06T06:35:56;13.65;;;6.35;;
74777;SDS011;63298;53.164;8.610;2024-03-06T06:38:22;12.43;;;6.13;;
74777;SDS011;63298;53.164;8.610;2024-03-06T06:40:47;10.57;;;6.13;;
74777;SDS011;63298;53.164;8.610;2024-03-06T06:43:15;13.85;;;6.15;;
74777;SDS011;63298;53.164;8.610;2024-03-06T06:45:41;15.43;;;6.07;;
74777;SDS011;63298;53.164;8.610;2024-03-06T06:48:07;14.60;;;6.38;;
74777;SDS011;63298;53.164;8.610;2024-03-06T06:50:32;13.38;;;6.45;;
74777;SDS011;63298;53.164;8.610;2024-03-06T06:52:58;12.15;;;6.15;;
74777;SDS011;63298;53.164;8.610;2024-03-06T06:55:23;12.07;;;6.25;;
74777;SDS011;63298;53.164;8.610;2024-03-06T06:57:49;16.77;;;6.65;;
74777;SDS011;63298;53.164;8.610;2024-03-06T12:21:27;18.60;;;9.32;;
74777;SDS011;63298;53.164;8.610;2024-03-06T12:24:05;20.25;;;8.90;;
74777;SDS011;63298;53.164;8.610;2024-03-06T12:26:41;19.08;;;9.25;;
74777;SDS011;63298;53.164;8.610;2024-03-06T12:29:07;15.48;;;8.60;;
74777;SDS011;63298;53.164;8.610;2024-03-06T12:31:42;17.15;;;9.00;;
74777;SDS011;63298;53.164;8.610;2024-03-06T12:34:13;18.15;;;9.55;;
74777;SDS011;63298;53.164;8.610;2024-03-06T12:36:39;19.13;;;9.25;;
74777;SDS011;63298;53.164;8.610;2024-03-06T12:39:05;19.15;;;8.52;;
74777;SDS011;63298;53.164;8.610;2024-03-06T12:42:02;18.90;;;8.90;;
74777;SDS011;63298;53.164;8.610;2024-03-06T12:44:47;20.23;;;9.23;;
74777;SDS011;63298;53.164;8.610;2024-03-06T12:47:15;19.40;;;8.95;;
74777;SDS011;63298;53.164;8.610;2024-03-06T12:49:53;17.20;;;8.75;;
74777;SDS011;63298;53.164;8.610;2024-03-06T12:52:43;19.98;;;9.90;;
74777;SDS011;63298;53.164;8.610;2024-03-06T12:55:08;19.85;;;8.32;;
74777;SDS011;63298;53.164;8.610;2024-03-06T12:57:51;16.23;;;8.07;;
74777;SDS011;63298;53.164;8.610;2024-03-06T13:00:19;15.35;;;8.55;;
74777;SDS011;63298;53.164;8.610;2024-03-06T13:03:21;15.25;;;8.32;;
74777;SDS011;63298;53.164;8.610;2024-03-06T13:05:47;19.10;;;7.90;;
74777;SDS011;63298;53.164;8.610;2024-03-06T13:08:13;17.60;;;8.23;;
74777;SDS011;63298;53.164;8.610;2024-03-06T13:11:07;16.27;;;8.32;;
74777;SDS011;63298;53.164;8.610;2024-03-06T13:13:44;14.57;;;8.02;;
74777;SDS011;63298;53.164;8.610;2024-03-06T13:16:13;15.18;;;8.10;;
74777;SDS011;63298;53.164;8.610;2024-03-06T13:18:54;18.52;;;8.70;;
74777;SDS011;63298;53.164;8.610;2024-03-06T13:21:20;18.30;;;8.80;;
74777;SDS011;63298;53.164;8.610;2024-03-06T13:23:46;16.00;;;8.90;;
74777;SDS011;63298;53.164;8.610;2024-03-06T13:26:17;18.50;;;8.52;;
74777;SDS011;63298;53.164;8.610;2024-03-06T13:28:46;18.55;;;8.23;;
74777;SDS011;63298;53.164;8.610;2024-03-06T13:31:33;19.13;;;8.70;;
74777;SDS011;63298;53.164;8.610;2024-03-06T13:34:01;17.45;;;9.10;;
74777;SDS011;63298;53.164;8.610;2024-03-06T13:36:26;21.10;;;8.05;;
74777;SDS011;63298;53.164;8.610;2024-03-06T13:39:01;19.65;;;7.78;;
74777;SDS011;63298;53.164;8.610;2024-03-06T13:41:27;14.20;;;7.55;;
74777;SDS011;63298;53.164;8.610;2024-03-06T13:44:32;18.40;;;7.22;;
74777;SDS011;63298;53.164;8.610;2024-03-06T13:47:00;18.55;;;8.55;;
74777;SDS011;63298;53.164;8.610;2024-03-06T13:49:41;14.32;;;7.60;;
74777;SDS011;63298;53.164;8.610;2024-03-06T13:52:17;16.60;;;8.95;;
74777;SDS011;63298;53.164;8.610;2024-03-06T13:54:52;17.45;;;8.00;;
74777;SDS011;63298;53.164;8.610;2024-03-06T13:57:48;17.38;;;7.43;;
74777;SDS011;63298;53.164;8.610;2024-03-06T14:00:21;19.23;;;8.55;;
74777;SDS011;63298;53.164;8.610;2024-03-06T14:02:47;25.73;;;8.35;;
74777;SDS011;63298;53.164;8.610;2024-03-06T14:05:13;15.70;;;7.38;;
74777;SDS011;63298;53.164;8.610;2024-03-06T14:11:32;22.52;;;8.85;;
74777;SDS011;63298;53.164;8.610;2024-03-06T14:14:01;16.00;;;8.20;;
74777;SDS011;63298;53.164;8.610;2024-03-06T14:17:00;19.95;;;7.82;;
74777;SDS011;63298;53.164;8.610;2024-03-06T14:22:30;13.02;;;7.38;;
74777;SDS011;63298;53.164;8.610;2024-03-06T14:25:01;15.95;;;7.63;;
74777;SDS011;63298;53.164;8.610;2024-03-06T14:27:54;14.90;;;8.15;;
74777;SDS011;63298;53.164;8.610;2024-03-06T14:30:26;17.63;;;8.32;;
74777;SDS011;63298;53.164;8.610;2024-03-06T14:32:57;14.18;;;7.40;;
74777;SDS011;63298;53.164;8.610;2024-03-06T14:38:14;20.55;;;8.52;;
74777;SDS011;63298;53.164;8.610;2024-03-06T14:40:52;15.05;;;8.18;;
74777;SDS011;63298;53.164;8.610;2024-03-06T14:43:30;22.20;;;8.40;;
74777;SDS011;63298;53.164;8.610;2024-03-06T14:49:03;16.40;;;7.82;;
74777;SDS011;63298;53.164;8.610;2024-03-06T14:51:30;15.90;;;8.35;;
74777;SDS011;63298;53.164;8.610;2024-03-06T14:54:12;12.50;;;7.25;;
74777;SDS011;63298;53.164;8.610;2024-03-06T14:56:38;18.73;;;8.18;;
74777;SDS011;63298;53.164;8.610;2024-03-06T14:59:10;15.35;;;8.10;;
74777;SDS011;63298;53.164;8.610;2024-03-06T15:01:53;18.27;;;8.65;;
74777;SDS011;63298;53.164;8.610;2024-03-06T15:04:47;15.73;;;8.27;;
74777;SDS011;63298;53.164;8.610;2024-03-06T15:07:15;15.35;;;8.65;;
74777;SDS011;63298;53.164;8.610;2024-03-06T15:09:50;16.60;;;7.93;;
74777;SDS011;63298;53.164;8.610;2024-03-06T15:12:32;18.75;;;9.02;;
74777;SDS011;63298;53.164;8.610;2024-03-06T15:15:03;21.60;;;8.82;;
74777;SDS011;63298;53.164;8.610;2024-03-06T15:20:30;22.23;;;9.27;;
74777;SDS011;63298;53.164;8.610;2024-03-06T15:23:45;12.63;;;7.15;;
74777;SDS011;63298;53.164;8.610;2024-03-06T15:26:10;21.80;;;8.85;;
74777;SDS011;63298;53.164;8.610;2024-03-06T15:28:36;13.90;;;8.13;;
74777;SDS011;63298;53.164;8.610;2024-03-06T15:31:04;15.68;;;8.48;;
74777;SDS011;63298;53.164;8.610;2024-03-06T15:33:39;14.70;;;7.97;;
74777;SDS011;63298;53.164;8.610;2024-03-06T15:36:04;14.57;;;8.48;;
74777;SDS011;63298;53.164;8.610;2024-03-06T15:38:33;14.20;;;7.93;;
74777;SDS011;63298;53.164;8.610;2024-03-06T15:41:14;19.23;;;8.48;;
74777;SDS011;63298;53.164;8.610;2024-03-06T15:44:02;20.98;;;7.85;;
74777;SDS011;63298;53.164;8.610;2024-03-06T15:46:56;17.05;;;7.95;;
74777;SDS011;63298;53.164;8.610;2024-03-06T15:49:22;21.48;;;8.73;;
74777;SDS011;63298;53.164;8.610;2024-03-06T15:51:54;18.38;;;8.40;;
74777;SDS011;63298;53.164;8.610;2024-03-06T15:54:32;16.00;;;7.72;;
74777;SDS011;63298;53.164;8.610;2024-03-06T15:57:09;19.10;;;9.10;;
74777;SDS011;63298;53.164;8.610;2024-03-06T15:59:44;15.07;;;8.55;;
74777;SDS011;63298;53.164;8.610;2024-03-06T16:02:19;13.70;;;7.90;;
74777;SDS011;63298;53.164;8.610;2024-03-06T16:04:45;15.65;;;7.57;;
74777;SDS011;63298;53.164;8.610;2024-03-06T16:07:17;17.70;;;8.68;;
74777;SDS011;63298;53.164;8.610;2024-03-06T16:10:04;18.35;;;8.35;;
74777;SDS011;63298;53.164;8.610;2024-03-06T16:13:00;16.52;;;7.60;;
74777;SDS011;63298;53.164;8.610;2024-03-06T16:16:01;32.13;;;8.48;;
74777;SDS011;63298;53.164;8.610;2024-03-06T16:21:36;18.08;;;8.23;;
74777;SDS011;63298;53.164;8.610;2024-03-06T16:24:22;18.60;;;8.68;;
74777;SDS011;63298;53.164;8.610;2024-03-06T16:27:08;18.90;;;9.10;;
74777;SDS011;63298;53.164;8.610;2024-03-06T16:30:06;20.55;;;8.43;;
74777;SDS011;63298;53.164;8.610;2024-03-06T16:33:05;20.80;;;8.80;;
74777;SDS011;63298;53.164;8.610;2024-03-06T16:35:45;14.70;;;7.78;;
74777;SDS011;63298;53.164;8.610;2024-03-06T16:41:25;17.35;;;8.50;;
74777;SDS011;63298;53.164;8.610;2024-03-06T16:46:53;18.17;;;8.60;;
74777;SDS011;63298;53.164;8.610;2024-03-06T16:49:38;23.92;;;9.05;;
74777;SDS011;63298;53.164;8.610;2024-03-06T16:52:10;24.10;;;9.32;;
74777;SDS011;63298;53.164;8.610;2024-03-06T16:54:35;15.90;;;9.27;;
74777;SDS011;63298;53.164;8.610;2024-03-06T16:57:04;16.65;;;9.00;;
74777;SDS011;63298;53.164;8.610;2024-03-06T16:59:29;21.42;;;9.15;;
74777;SDS011;63298;53.164;8.610;2024-03-06T17:02:01;18.95;;;9.15;;
74777;SDS011;63298;53.164;8.610;2024-03-06T17:04:44;19.58;;;10.13;;
74777;SDS011;63298;53.164;8.610;2024-03-06T17:07:15;25.75;;;9.77;;
74777;SDS011;63298;53.164;8.610;2024-03-06T17:10:06;26.92;;;9.95;;
74777;SDS011;63298;53.164;8.610;2024-03-06T17:12:38;19.33;;;9.15;;
74777;SDS011;63298;53.164;8.610;2024-03-06T17:15:07;17.15;;;8.50;;
74777;SDS011;63298;53.164;8.610;2024-03-06T17:20:24;23.60;;;9.65;;
74777;SDS011;63298;53.164;8.610;2024-03-06T17:22:50;21.52;;;9.95;;
74777;SDS011;63298;53.164;8.610;2024-03-06T17:25:16;19.95;;;9.63;;
74777;SDS011;63298;53.164;8.610;2024-03-06T17:28:03;23.88;;;8.77;;
74777;SDS011;63298;53.164;8.610;2024-03-06T22:56:52;9.75;;;4.78;;
74777;SDS011;63298;53.164;8.610;2024-03-06T22:59:28;8.25;;;5.10;;
74777;SDS011;63298;53.164;8.610;2024-03-06T23:01:57;9.90;;;4.93;;
74777;SDS011;63298;53.164;8.610;2024-03-06T23:04:23;8.10;;;4.38;;
74777;SDS011;63298;53.164;8.610;2024-03-06T23:06:57;7.88;;;4.93;;
74777;SDS011;63298;53.164;8.610;2024-03-06T23:09:31;7.53;;;4.93;;
74777;SDS011;63298;53.164;8.610;2024-03-06T23:12:05;8.40;;;4.95;;
74777;SDS011;63298;53.164;8.610;2024-03-06T23:14:53;7.63;;;5.20;;
74777;SDS011;63298;53.164;8.610;2024-03-06T23:17:25;9.48;;;4.63;;
74777;SDS011;63298;53.164;8.610;2024-03-06T23:20:06;8.07;;;5.60;;
74777;SDS011;63298;53.164;8.610;2024-03-06T23:22:46;9.48;;;5.32;;
74777;SDS011;63298;53.164;8.610;2024-03-06T23:28:22;8.73;;;4.75;;
74777;SDS011;63298;53.164;8.610;2024-03-06T23:32:04;9.60;;;5.22;;
74777;SDS011;63298;53.164;8.610;2024-03-06T23:34:31;7.88;;;5.13;;
74777;SDS011;63298;53.164;8.610;2024-03-06T23:36:57;9.27;;;5.68;;
74777;SDS011;63298;53.164;8.610;2024-03-06T23:39:50;10.68;;;5.65;;
74777;SDS011;63298;53.164;8.610;2024-03-06T23:45:35;10.35;;;6.40;;
74777;SDS011;63298;53.164;8.610;2024-03-06T23:48:46;9.32;;;5.38;;
74777;SDS011;63298;53.164;8.610;2024-03-06T23:51:24;9.20;;;5.80;;
74777;SDS011;63298;53.164;8.610;2024-03-06T23:54:37;10.93;;;5.60;;
